EYVI

Vilnius International Airport

Vilnius, Lithuania
METAR EYVI 192150Z 05005KT 9999 BKN013 02/00 Q1031 R01/2///95 NOSIG
Observed Flight Rules
Nov-19 @ 21:50 UTC (14 minutes ago) Marginal Visual Flight Rules
Wind Visibility Clouds
50° at 5 knots 10,000+ meters
  • Broken at 1,300' AGL
Temperatures Readings
Current 2°C / 36°F
Dewpoint 0°C / 32°F
Humidity 87%
Altimeter 30.44" Hg
Pressure 1031 hPa
Elevation 197
METAR EYVI 192150Z 05005KT 9999 BKN013 02/00 Q1031 R01/2///95 NOSIG
Observed Flight Rules
Nov-19 @ 21:50 UTC
(14 minutes ago)
MVFR
Wind Visibility
50° at 5 knots 10,000+ meters
Clouds
  • Broken at 1,300' AGL
Temperature Dewpoint
2°C / 36°F 0°C / 32°F
Humidity Altimeter Pressure
87% 30.44" Hg 1031 hPa